首页
METAR-TAF:

METAR-TAF

机场 :

科威特國際機場

科威特, 科威特

纬度: 29-13N, 经度: 047-59E, 海拔: 55米

当前天气观测

该预报发布于12分钟前的23:00 UTC
风速3节,风向
温度 10°C
湿度 76%
气压 1019 hPa
能見度: 6000

METAR: OKBK 232300Z 01003KT 6000 NSC 10/06 Q1019 NOSIG

时间: 02:12 (23:12 UTC)

预报

该预报发布于6小时和27分钟前的16:45 UTC
预报有效从23日的 18点(UTC)到 24日的 24点(UTC)
风速3节,风向多变
能見度: 7000
短暂存在
从 23日的 22点(UTC)到 24日的 05点(UTC)
能見度: 3000
轻雾

TAF: OKBK 231645Z 2318/2424 VRB03KT 7000 NSC TEMPO 2322/2405 3000 BR

超过4000个机场的气象观测和天气预报(METAR&TAF报告)。

可查询的气象台以黄色和红色小点在地图上表示。

将鼠标移到小点上方,可查看气象台名称。

然后点击查看天气观测和预报。

如需切换地图:点击带黑十字的绿色按钮放大地图;点击带横线的绿色按钮缩小地图;或者点击绿色箭头查看邻近地区的地图。


METAR-TAF: